Terminal Aerodrome Forecast
Issued by NWS Wakefield, VA

Home | Current Version | Previous Version | Text Only | Print | Product List | Glossary On
Versions: 1 2 3 4 5 6 7 8 9 10 11 12 13 14 15
003
FTUS41 KAKQ 281152 RRB
TAFORF
TAF
KORF 281152Z 2812/0112 20005KT P6SM SCT100
     FM281400 21007KT P6SM SCT200
     FM281900 19010KT P6SM BKN120
     FM010300 20010G17KT P6SM BKN060
     FM010700 20013G21KT 4SM BR OVC007=

USA.gov is the U.S. government's official web portal to all federal, state and local government web resources and services.